Time;durP1;ratioP1;P1;durP2;ratioP2;P2;SDS_P1;SDS_P2;PMS_P1;PMS_P2;Temp;Humidity;BMP_temperature;BMP_pressure;BME280_temperature;BME280_humidity;BME280_pressure;Samples;Min_cycle;Max_cycle;Signal;HPM_P1;HPM_P2
2022/03/01 00:02:18;;;;;;;13.65;8.38;;;3.10;99.90;;;;;;5049883;28;20045;-67
2022/03/01 00:04:44;;;;;;;12.60;7.82;;;3.10;99.90;;;;;;5050896;28;20483;-66
2022/03/01 00:07:11;;;;;;;12.18;7.63;;;3.00;99.90;;;;;;5050427;28;20057;-66
2022/03/01 00:09:38;;;;;;;12.10;7.65;;;3.00;99.90;;;;;;5050195;28;20053;-66
2022/03/01 00:12:06;;;;;;;10.98;7.13;;;2.90;99.90;;;;;;5050338;28;20106;-67
2022/03/01 00:14:33;;;;;;;15.70;8.95;;;2.90;99.90;;;;;;5049446;28;20060;-66
2022/03/01 00:17:00;;;;;;;14.77;7.90;;;2.90;99.90;;;;;;5051056;28;20404;-67
2022/03/01 00:19:29;;;;;;;13.55;7.72;;;2.80;99.90;;;;;;5050159;28;20057;-67
2022/03/01 00:21:56;;;;;;;13.32;7.78;;;2.80;99.90;;;;;;5049192;28;20124;-66
2022/03/01 00:24:23;;;;;;;22.38;7.90;;;2.80;99.90;;;;;;5050168;28;20041;-66
2022/03/01 00:26:50;;;;;;;14.25;7.20;;;2.80;99.90;;;;;;5050517;28;20056;-66
2022/03/01 00:29:17;;;;;;;11.35;7.63;;;2.70;99.90;;;;;;5049593;28;20084;-66
2022/03/01 00:31:44;;;;;;;12.73;7.57;;;2.70;99.90;;;;;;5050213;28;20061;-66
2022/03/01 00:34:11;;;;;;;13.13;7.75;;;2.70;99.90;;;;;;5050245;28;20045;-66
2022/03/01 00:36:39;;;;;;;11.90;7.10;;;2.70;99.90;;;;;;5049412;28;20493;-66
2022/03/01 00:39:07;;;;;;;12.55;7.63;;;2.70;99.90;;;;;;5050315;28;20467;-65
2022/03/01 00:41:34;;;;;;;13.30;8.35;;;2.70;99.90;;;;;;5051185;28;20099;-67
2022/03/01 00:44:01;;;;;;;12.60;8.15;;;2.60;99.90;;;;;;5049405;28;20061;-66
2022/03/01 00:46:28;;;;;;;13.48;7.68;;;2.60;99.90;;;;;;5050187;28;20489;-66
2022/03/01 00:48:56;;;;;;;12.60;8.20;;;2.50;99.90;;;;;;5050354;28;20447;-66
2022/03/01 00:51:24;;;;;;;11.82;7.90;;;2.50;99.90;;;;;;5049479;28;20053;-66
2022/03/01 00:53:52;;;;;;;13.27;8.45;;;2.50;99.90;;;;;;5049397;28;20119;-66
2022/03/01 00:56:19;;;;;;;14.73;7.82;;;2.50;99.90;;;;;;5049870;28;20053;-66
2022/03/01 00:58:46;;;;;;;19.83;9.25;;;2.40;99.90;;;;;;5049581;28;20049;-67
2022/03/01 01:01:13;;;;;;;11.63;7.03;;;2.40;99.90;;;;;;5049848;28;20049;-66
2022/03/01 01:03:40;;;;;;;11.82;7.22;;;2.40;99.90;;;;;;5049474;28;20053;-66
2022/03/01 01:06:07;;;;;;;14.52;8.20;;;2.40;99.90;;;;;;5049834;28;20053;-66
2022/03/01 01:08:33;;;;;;;11.95;8.02;;;2.30;99.90;;;;;;5049900;28;20053;-66
2022/03/01 01:11:02;;;;;;;14.35;8.02;;;2.30;99.90;;;;;;5053416;28;20084;-66
2022/03/01 01:13:30;;;;;;;14.15;8.10;;;2.30;99.90;;;;;;5053630;28;20045;-66
2022/03/01 01:15:57;;;;;;;12.35;7.55;;;2.30;99.90;;;;;;5053469;28;20094;-66
2022/03/01 01:18:24;;;;;;;13.35;7.80;;;2.20;99.90;;;;;;5053093;28;20084;-66
2022/03/01 01:20:51;;;;;;;13.48;7.82;;;2.20;99.90;;;;;;5053625;28;20513;-66
2022/03/01 01:23:17;;;;;;;12.93;7.78;;;2.40;99.90;;;;;;5053682;28;20115;-66
2022/03/01 01:25:43;;;;;;;12.07;7.82;;;2.30;99.90;;;;;;5053188;28;20053;-65
2022/03/01 01:28:12;;;;;;;11.77;7.18;;;2.20;99.90;;;;;;5053881;28;20126;-66
2022/03/01 01:30:39;;;;;;;12.35;7.10;;;2.20;99.90;;;;;;5053490;28;20504;-67
2022/03/01 01:33:06;;;;;;;13.18;7.65;;;2.20;99.90;;;;;;5052990;28;20049;-66
2022/03/01 01:35:35;;;;;;;14.15;8.43;;;2.20;99.90;;;;;;5053446;28;20077;-66
2022/03/01 01:38:03;;;;;;;12.15;7.55;;;2.20;99.90;;;;;;5053609;28;20464;-66
2022/03/01 01:40:31;;;;;;;12.25;8.18;;;2.20;99.90;;;;;;5052701;28;20080;-67
2022/03/01 01:42:59;;;;;;;12.85;7.90;;;2.10;99.90;;;;;;5053168;28;20462;-67
2022/03/01 01:45:28;;;;;;;11.80;7.55;;;2.10;99.90;;;;;;5053751;28;20084;-67
2022/03/01 01:47:56;;;;;;;13.27;7.75;;;2.10;99.90;;;;;;5052551;28;20500;-67
2022/03/01 01:50:24;;;;;;;12.95;8.20;;;2.10;99.90;;;;;;5053173;28;20085;-66
2022/03/01 01:52:52;;;;;;;13.88;7.90;;;2.10;99.90;;;;;;5052733;28;20111;-66
2022/03/01 01:55:20;;;;;;;12.85;8.80;;;2.10;99.90;;;;;;5053176;28;20060;-66
2022/03/01 01:57:48;;;;;;;11.90;8.13;;;2.00;99.90;;;;;;5053014;28;20064;-66
2022/03/01 02:00:16;;;;;;;10.98;7.05;;;2.00;99.90;;;;;;5033735;28;20131;-67
2022/03/01 02:02:45;;;;;;;12.75;8.13;;;2.00;99.90;;;;;;5033071;28;20088;-66
2022/03/01 02:05:12;;;;;;;13.05;7.80;;;2.00;99.90;;;;;;5052740;28;20049;-66
2022/03/01 02:07:46;;;;;;;12.52;7.65;;;1.90;99.90;;;;;;5052337;28;20053;-66
2022/03/01 02:10:13;;;;;;;11.90;7.47;;;1.90;99.90;;;;;;5053197;28;20421;-66
2022/03/01 02:12:40;;;;;;;13.77;8.27;;;1.90;99.90;;;;;;5052330;28;20504;-66
2022/03/01 02:15:08;;;;;;;12.98;7.95;;;1.90;99.90;;;;;;5052417;28;20104;-66
2022/03/01 02:17:35;;;;;;;15.38;7.88;;;1.90;99.90;;;;;;5053773;28;20416;-67
2022/03/01 02:20:08;;;;;;;13.93;8.00;;;1.90;99.90;;;;;;5049485;28;20126;-67
2022/03/01 02:22:35;;;;;;;14.95;8.60;;;1.90;99.90;;;;;;5031898;28;20053;-66
2022/03/01 02:25:02;;;;;;;13.88;7.95;;;1.90;99.90;;;;;;5041041;28;20106;-67
2022/03/01 02:27:29;;;;;;;14.30;7.57;;;1.90;99.90;;;;;;5051391;28;20447;-67
2022/03/01 02:29:55;;;;;;;12.30;7.95;;;1.90;99.90;;;;;;5052819;28;20562;-67
2022/03/01 02:32:22;;;;;;;13.20;7.57;;;1.90;99.90;;;;;;5052201;28;20055;-67
2022/03/01 02:34:50;;;;;;;17.02;8.73;;;1.90;99.90;;;;;;5053345;28;20072;-66
2022/03/01 02:37:18;;;;;;;12.15;7.72;;;1.90;99.90;;;;;;5051444;28;20049;-68
2022/03/01 02:39:45;;;;;;;13.55;7.68;;;1.90;99.90;;;;;;5052248;28;20052;-65
2022/03/01 02:42:12;;;;;;;12.00;7.30;;;1.90;99.90;;;;;;5051976;28;20110;-66
2022/03/01 02:44:39;;;;;;;14.00;8.52;;;1.90;99.90;;;;;;5052257;28;20103;-65
2022/03/01 02:47:06;;;;;;;14.73;8.55;;;1.90;99.90;;;;;;5052311;28;20133;-66
2022/03/01 02:49:33;;;;;;;12.07;8.77;;;1.90;99.90;;;;;;5051517;28;20106;-66
2022/03/01 02:52:00;;;;;;;12.88;7.75;;;1.80;99.90;;;;;;5052386;28;20049;-66
2022/03/01 02:54:28;;;;;;;11.90;8.27;;;1.90;99.90;;;;;;5053251;28;20049;-66
2022/03/01 02:56:59;;;;;;;12.75;7.60;;;1.80;99.90;;;;;;5051243;28;20095;-65
2022/03/01 02:59:26;;;;;;;12.57;8.48;;;1.80;99.90;;;;;;5052145;28;20067;-66
2022/03/01 03:01:52;;;;;;;13.77;8.43;;;1.80;99.90;;;;;;5052080;28;20107;-66
2022/03/01 03:04:19;;;;;;;11.77;7.88;;;0.90;99.90;;;;;;5052453;28;20106;-66
2022/03/01 03:06:46;;;;;;;11.15;7.45;;;1.80;99.90;;;;;;5052212;28;20053;-66
2022/03/01 03:09:13;;;;;;;11.43;7.55;;;1.80;99.90;;;;;;5051961;28;20052;-65
2022/03/01 03:11:41;;;;;;;11.52;7.38;;;1.90;99.90;;;;;;5050989;28;20053;-65
2022/03/01 03:14:08;;;;;;;12.40;6.90;;;1.90;99.90;;;;;;5051573;28;20091;-66
2022/03/01 03:16:35;;;;;;;13.35;8.40;;;1.90;99.90;;;;;;5051682;28;20049;-66
2022/03/01 03:19:02;;;;;;;11.73;8.27;;;1.90;99.90;;;;;;5051117;28;20060;-65
2022/03/01 03:21:29;;;;;;;13.82;8.52;;;2.00;99.90;;;;;;5051604;28;20496;-66
2022/03/01 03:23:56;;;;;;;11.18;7.57;;;2.00;99.90;;;;;;5051041;28;20107;-65
2022/03/01 03:26:23;;;;;;;10.93;7.88;;;2.00;99.90;;;;;;5050671;28;20134;-65
2022/03/01 03:28:51;;;;;;;13.70;8.32;;;2.00;99.90;;;;;;5051533;28;20057;-65
2022/03/01 03:31:18;;;;;;;14.48;7.97;;;2.10;99.90;;;;;;5051938;28;20476;-68
2022/03/01 03:33:45;;;;;;;13.07;7.63;;;2.10;99.90;;;;;;5051252;28;20508;-67
2022/03/01 03:36:12;;;;;;;13.55;7.28;;;2.10;99.90;;;;;;5051155;28;20515;-66
2022/03/01 03:38:39;;;;;;;11.02;7.55;;;2.20;99.90;;;;;;5050400;28;20348;-66
2022/03/01 03:41:06;;;;;;;13.55;7.90;;;2.20;99.90;;;;;;5051428;28;20118;-65
2022/03/01 03:43:33;;;;;;;14.15;8.27;;;2.20;99.90;;;;;;5051182;28;20450;-66
2022/03/01 03:46:01;;;;;;;13.07;8.02;;;2.20;99.90;;;;;;5050570;28;20049;-66
2022/03/01 03:48:28;;;;;;;15.27;8.35;;;2.30;99.90;;;;;;5051223;28;20061;-66
2022/03/01 03:50:55;;;;;;;13.63;8.82;;;2.30;99.90;;;;;;5051996;28;20114;-66
2022/03/01 03:53:22;;;;;;;13.45;8.07;;;2.30;99.90;;;;;;5050433;28;20149;-65
2022/03/01 03:55:49;;;;;;;13.13;7.88;;;2.30;99.90;;;;;;5051042;28;20051;-65
2022/03/01 03:58:16;;;;;;;13.48;8.32;;;2.30;99.90;;;;;;5050778;28;20056;-65
2022/03/01 04:00:43;;;;;;;15.18;8.50;;;2.30;99.90;;;;;;5050041;28;20573;-65
2022/03/01 04:03:11;;;;;;;11.35;7.30;;;2.30;99.90;;;;;;5050570;28;20566;-65
2022/03/01 04:05:38;;;;;;;12.65;8.02;;;2.30;99.90;;;;;;5050597;28;20055;-66
2022/03/01 04:08:06;;;;;;;17.00;10.00;;;2.30;99.90;;;;;;5051267;28;20045;-65
2022/03/01 04:10:33;;;;;;;13.20;7.90;;;2.30;99.90;;;;;;5052080;28;20507;-65
2022/03/01 04:12:59;;;;;;;15.57;8.65;;;2.20;99.90;;;;;;5050748;28;20053;-66
2022/03/01 04:15:26;;;;;;;12.13;8.45;;;2.20;99.90;;;;;;5049825;28;20048;-67
2022/03/01 04:17:53;;;;;;;13.73;7.93;;;2.20;99.90;;;;;;5050731;28;20053;-66
2022/03/01 04:20:22;;;;;;;17.42;10.02;;;2.20;99.90;;;;;;5050126;28;20139;-66
2022/03/01 04:22:49;;;;;;;12.63;8.52;;;2.20;99.90;;;;;;5049976;28;20508;-66
2022/03/01 04:25:15;;;;;;;17.88;9.00;;;2.20;99.90;;;;;;5050140;28;20049;-66
2022/03/01 04:27:43;;;;;;;12.63;8.13;;;2.20;99.90;;;;;;5049914;28;20145;-66
2022/03/01 04:30:12;;;;;;;12.75;8.35;;;2.20;99.90;;;;;;5049736;28;20056;-66
2022/03/01 04:32:40;;;;;;;14.60;8.98;;;2.20;99.90;;;;;;5050192;28;20291;-66
2022/03/01 04:35:09;;;;;;;12.60;7.68;;;2.20;99.90;;;;;;5049423;28;20103;-66
2022/03/01 04:37:37;;;;;;;14.38;9.00;;;2.20;99.90;;;;;;5050375;28;20056;-65
2022/03/01 04:40:06;;;;;;;12.85;8.23;;;2.20;99.90;;;;;;5049996;28;20053;-65
2022/03/01 04:42:33;;;;;;;14.82;8.52;;;2.20;99.90;;;;;;5049710;28;20134;-67
2022/03/01 04:45:00;;;;;;;13.05;8.68;;;2.20;99.90;;;;;;5050705;28;20053;-67
2022/03/01 04:47:27;;;;;;;13.70;8.38;;;2.20;99.90;;;;;;5034833;28;20128;-65
2022/03/01 04:49:54;;;;;;;14.18;9.38;;;2.30;99.90;;;;;;5037146;28;20076;-66
2022/03/01 04:52:21;;;;;;;13.00;7.88;;;2.50;99.90;;;;;;5043571;28;20049;-65
2022/03/01 04:54:50;;;;;;;12.75;8.70;;;2.30;99.90;;;;;;5042008;28;20107;-65
2022/03/01 04:57:17;;;;;;;14.13;8.52;;;2.20;99.90;;;;;;5038137;28;20040;-65
2022/03/01 04:59:44;;;;;;;13.85;9.23;;;2.20;99.90;;;;;;5040309;28;20492;-65
2022/03/01 05:02:11;;;;;;;14.13;8.15;;;2.20;99.90;;;;;;5041833;28;20104;-65
2022/03/01 05:04:37;;;;;;;17.65;9.55;;;2.20;99.90;;;;;;5036299;28;20107;-66
2022/03/01 05:07:04;;;;;;;18.80;9.68;;;2.20;99.90;;;;;;5037732;28;20041;-66
2022/03/01 05:09:31;;;;;;;17.67;9.32;;;2.20;99.90;;;;;;5046665;28;20303;-66
2022/03/01 05:11:59;;;;;;;15.55;9.48;;;2.20;99.90;;;;;;5042246;28;20086;-66
2022/03/01 05:14:26;;;;;;;18.85;9.25;;;2.20;99.90;;;;;;5040464;28;20093;-67
2022/03/01 05:16:53;;;;;;;16.33;9.50;;;2.20;99.90;;;;;;5042515;28;20488;-67
2022/03/01 05:19:20;;;;;;;15.55;9.35;;;2.20;99.90;;;;;;5043345;28;20119;-67
2022/03/01 05:21:47;;;;;;;13.30;9.13;;;2.20;99.90;;;;;;5041297;28;20462;-66
2022/03/01 05:24:14;;;;;;;14.35;9.48;;;2.20;99.90;;;;;;5044071;28;20086;-66
2022/03/01 05:26:41;;;;;;;15.00;9.18;;;2.20;99.90;;;;;;5041823;28;20071;-67
2022/03/01 05:29:10;;;;;;;21.75;9.52;;;2.30;99.90;;;;;;5046058;28;20051;-66
2022/03/01 05:31:37;;;;;;;15.70;9.27;;;2.30;99.90;;;;;;5041429;28;20404;-67
2022/03/01 05:34:03;;;;;;;15.07;8.98;;;2.30;99.90;;;;;;5047054;28;20060;-67
2022/03/01 05:36:30;;;;;;;13.57;9.55;;;2.40;99.90;;;;;;5041135;28;20049;-67
2022/03/01 05:38:57;;;;;;;17.13;9.63;;;2.30;99.90;;;;;;5038835;28;20053;-67
2022/03/01 05:41:25;;;;;;;17.08;8.80;;;2.30;99.90;;;;;;5033670;28;20154;-68
2022/03/01 05:43:52;;;;;;;15.40;8.90;;;2.30;99.90;;;;;;5028451;28;20524;-68
2022/03/01 05:46:20;;;;;;;15.27;10.43;;;3.40;99.90;;;;;;5039821;28;20049;-68
2022/03/01 05:48:47;;;;;;;12.13;8.73;;;2.30;99.90;;;;;;5032694;28;20096;-67
2022/03/01 05:51:15;;;;;;;16.38;10.10;;;2.30;99.90;;;;;;5028327;28;20093;-66
2022/03/01 05:53:42;;;;;;;15.38;9.27;;;2.30;99.90;;;;;;5028062;28;20054;-66
2022/03/01 05:56:09;;;;;;;15.32;9.07;;;2.30;99.90;;;;;;5030438;28;20557;-67
2022/03/01 05:58:35;;;;;;;14.38;8.77;;;2.30;99.90;;;;;;5033773;28;20050;-67
2022/03/01 06:01:02;;;;;;;12.85;8.98;;;2.30;99.90;;;;;;5032297;28;20107;-66
2022/03/01 06:03:30;;;;;;;18.35;9.20;;;2.30;99.90;;;;;;5036651;28;20077;-66
2022/03/01 06:05:57;;;;;;;17.17;9.70;;;2.30;99.90;;;;;;5032141;28;20146;-66
2022/03/01 06:08:24;;;;;;;14.02;8.80;;;2.30;99.90;;;;;;5048074;28;20045;-68
2022/03/01 06:10:51;;;;;;;13.73;8.70;;;2.30;99.90;;;;;;5044753;28;20475;-67
2022/03/01 06:13:18;;;;;;;16.70;9.40;;;2.40;99.90;;;;;;5050492;28;20060;-67
2022/03/01 06:15:45;;;;;;;13.98;9.10;;;3.40;99.90;;;;;;5046092;28;20045;-67
2022/03/01 06:18:12;;;;;;;16.13;9.95;;;2.30;99.90;;;;;;5045117;28;20052;-65
2022/03/01 06:20:41;;;;;;;15.43;9.32;;;2.40;99.90;;;;;;5045529;28;20484;-66
2022/03/01 06:23:08;;;;;;;16.40;10.25;;;2.40;99.90;;;;;;5044878;28;20099;-68
2022/03/01 06:25:34;;;;;;;16.77;9.18;;;2.40;99.90;;;;;;5058691;28;20484;-67
2022/03/01 06:28:01;;;;;;;16.02;10.43;;;2.40;99.90;;;;;;5044572;28;20045;-67
2022/03/01 06:30:28;;;;;;;14.75;9.20;;;2.50;99.90;;;;;;5040323;28;20103;-65
2022/03/01 06:32:55;;;;;;;14.65;9.75;;;2.50;99.90;;;;;;5041429;28;20592;-65
2022/03/01 06:35:22;;;;;;;18.20;9.93;;;2.50;99.90;;;;;;5042911;28;20527;-66
2022/03/01 06:37:50;;;;;;;16.20;10.30;;;2.50;99.90;;;;;;5048673;28;20068;-66
2022/03/01 06:40:18;;;;;;;14.63;10.18;;;2.70;99.90;;;;;;5043914;28;20049;-66
2022/03/01 06:42:47;;;;;;;17.45;9.55;;;2.50;99.90;;;;;;5040926;28;20111;-65
2022/03/01 06:45:14;;;;;;;16.48;9.82;;;2.60;99.90;;;;;;5048197;28;20548;-65
2022/03/01 06:47:41;;;;;;;15.18;9.10;;;2.70;99.90;;;;;;5043691;28;20041;-65
2022/03/01 06:50:10;;;;;;;16.17;9.75;;;2.70;99.90;;;;;;5041936;28;20049;-65
2022/03/01 06:52:37;;;;;;;14.52;8.88;;;2.70;99.90;;;;;;5045899;28;20080;-65
2022/03/01 06:55:08;;;;;;;14.68;9.30;;;2.70;99.90;;;;;;5043520;28;20130;-67
2022/03/01 06:57:34;;;;;;;;;;;2.80;99.90;;;;;;5045216;28;20049;-67
2022/03/01 07:00:01;;;;;;;17.75;8.90;;;2.80;99.90;;;;;;5044610;28;19925;-66
2022/03/01 07:02:29;;;;;;;15.45;9.98;;;2.90;99.90;;;;;;5045386;28;20053;-67
2022/03/01 07:04:56;;;;;;;15.40;10.13;;;3.00;99.90;;;;;;5044572;28;20071;-67
2022/03/01 07:07:23;;;;;;;15.80;9.68;;;3.00;99.90;;;;;;5044009;28;20547;-67
2022/03/01 07:09:50;;;;;;;15.27;9.52;;;3.10;99.90;;;;;;5047420;28;20037;-66
2022/03/01 07:12:18;;;;;;;15.88;9.10;;;3.20;99.90;;;;;;5044923;28;20092;-67
2022/03/01 07:14:45;;;;;;;17.17;9.10;;;3.30;99.90;;;;;;5041872;28;20099;-67
2022/03/01 07:17:12;;;;;;;15.65;8.88;;;3.30;99.90;;;;;;5042664;28;20603;-66
2022/03/01 07:19:39;;;;;;;15.82;9.80;;;3.40;99.90;;;;;;5044678;28;20088;-65
2022/03/01 07:22:05;;;;;;;18.50;10.15;;;3.40;99.90;;;;;;5043949;28;20056;-66
2022/03/01 07:24:32;;;;;;;17.02;9.48;;;3.50;99.90;;;;;;5044938;28;20436;-65
2022/03/01 07:26:59;;;;;;;14.55;10.15;;;3.40;99.90;;;;;;5042751;28;20558;-65
2022/03/01 07:29:27;;;;;;;16.90;10.00;;;3.60;99.90;;;;;;5045931;28;20054;-65
2022/03/01 07:31:54;;;;;;;13.10;9.77;;;3.70;99.90;;;;;;5045529;28;21517;-66
2022/03/01 07:34:21;;;;;;;23.20;11.20;;;3.70;99.90;;;;;;5046002;28;20546;-67
2022/03/01 07:36:48;;;;;;;16.52;10.38;;;3.70;99.90;;;;;;5048915;28;20041;-66
2022/03/01 07:46:19;;;;;;;18.38;10.05;;;3.80;99.90;;;;;;5052942;28;20326;-65
2022/03/01 07:48:46;;;;;;;15.27;9.20;;;3.80;99.90;;;;;;5052759;28;20049;-66
2022/03/01 07:51:13;;;;;;;15.15;10.25;;;3.90;99.90;;;;;;5052736;28;20048;-66
2022/03/01 07:53:40;;;;;;;24.70;10.50;;;3.90;99.90;;;;;;5051458;28;20087;-67
2022/03/01 07:56:07;;;;;;;16.05;9.07;;;3.90;99.90;;;;;;5052230;28;20059;-67
2022/03/01 07:58:34;;;;;;;15.38;10.30;;;3.90;99.90;;;;;;5052160;28;20517;-66
2022/03/01 08:01:01;;;;;;;17.77;10.52;;;4.00;99.90;;;;;;5051874;28;20118;-67
2022/03/01 08:03:29;;;;;;;19.48;10.80;;;4.00;99.90;;;;;;5053456;28;20053;-67
2022/03/01 08:05:57;;;;;;;23.15;10.50;;;4.10;99.90;;;;;;5051519;28;20463;-67
2022/03/01 08:08:24;;;;;;;20.05;10.48;;;4.10;99.90;;;;;;5052300;28;20060;-66
2022/03/01 08:10:52;;;;;;;18.77;9.40;;;4.10;99.90;;;;;;5052194;28;20087;-67
2022/03/01 08:13:18;;;;;;;16.98;10.73;;;4.20;99.90;;;;;;5051470;28;20098;-67
2022/03/01 08:15:45;;;;;;;17.83;10.65;;;4.20;99.90;;;;;;5052230;28;20065;-67
2022/03/01 08:18:12;;;;;;;15.65;9.60;;;4.30;99.90;;;;;;5052087;28;20106;-67
2022/03/01 08:20:40;;;;;;;13.88;9.50;;;4.20;99.90;;;;;;5052419;28;20049;-67
2022/03/01 08:23:07;;;;;;;15.48;9.70;;;4.20;99.90;;;;;;5053301;28;20118;-67
2022/03/01 08:25:34;;;;;;;14.60;9.90;;;4.30;99.90;;;;;;5051404;28;20099;-66
2022/03/01 08:28:01;;;;;;;14.73;10.02;;;4.40;99.90;;;;;;5049694;28;20094;-66
2022/03/01 08:30:29;;;;;;;17.15;10.07;;;4.40;99.90;;;;;;5055743;28;20138;-67
2022/03/01 08:32:56;;;;;;;14.82;9.60;;;4.40;99.90;;;;;;5051370;28;20056;-66
2022/03/01 08:35:24;;;;;;;18.63;9.93;;;4.50;99.90;;;;;;5050722;28;20045;-66
2022/03/01 08:37:52;;;;;;;14.77;9.77;;;4.50;99.90;;;;;;5062421;28;20048;-66
2022/03/01 08:40:21;;;;;;;17.83;10.73;;;4.60;99.90;;;;;;5071507;28;20139;-67
2022/03/01 08:42:49;;;;;;;14.65;10.05;;;4.70;99.90;;;;;;5052065;28;20148;-68
2022/03/01 08:45:16;;;;;;;19.15;10.57;;;5.00;99.90;;;;;;5052614;28;20056;-67
2022/03/01 08:47:43;;;;;;;18.67;10.45;;;5.00;99.90;;;;;;5051214;28;20045;-66
2022/03/01 08:50:11;;;;;;;15.43;9.95;;;5.20;99.90;;;;;;5051056;28;20049;-66
2022/03/01 08:52:39;;;;;;;13.70;9.50;;;5.40;99.90;;;;;;5052235;28;20049;-67
2022/03/01 08:55:09;;;;;;;14.50;9.52;;;5.60;99.90;;;;;;5052831;28;20125;-67
2022/03/01 08:57:37;;;;;;;17.23;9.93;;;5.80;99.90;;;;;;5071377;28;20074;-66
2022/03/01 09:00:05;;;;;;;16.35;10.20;;;6.10;99.90;;;;;;5061960;28;20763;-66
2022/03/01 09:02:32;;;;;;;15.80;10.45;;;6.20;99.90;;;;;;5050485;28;20049;-67
2022/03/01 09:04:59;;;;;;;16.85;10.32;;;6.50;99.90;;;;;;5051636;28;20049;-65
2022/03/01 09:07:26;;;;;;;14.90;10.05;;;6.80;99.90;;;;;;5051064;28;20095;-67
2022/03/01 09:09:53;;;;;;;17.63;10.35;;;7.20;99.90;;;;;;5052024;28;20045;-65
2022/03/01 09:12:22;;;;;;;17.38;10.40;;;7.60;99.90;;;;;;5062831;28;20446;-67
2022/03/01 09:14:48;;;;;;;15.95;10.32;;;8.10;99.90;;;;;;5071386;28;20049;-67
2022/03/01 09:17:15;;;;;;;18.13;11.02;;;8.40;99.90;;;;;;5070759;28;20130;-67
2022/03/01 09:19:42;;;;;;;16.50;11.00;;;8.70;99.90;;;;;;5071860;28;20446;-66
2022/03/01 09:22:09;;;;;;;16.67;9.85;;;9.00;99.20;;;;;;5070993;28;20048;-66
2022/03/01 09:24:36;;;;;;;14.20;10.18;;;9.30;99.40;;;;;;5070727;28;20052;-66
2022/03/01 09:27:03;;;;;;;19.17;11.30;;;9.40;98.30;;;;;;5071224;28;20106;-66
2022/03/01 09:29:32;;;;;;;14.82;10.20;;;9.30;97.50;;;;;;5052534;28;20131;-67
2022/03/01 09:31:59;;;;;;;18.05;10.50;;;8.90;97.70;;;;;;5054263;28;20040;-67
2022/03/01 09:34:27;;;;;;;17.63;10.75;;;8.60;98.20;;;;;;5054867;28;20048;-67
2022/03/01 09:36:54;;;;;;;16.70;11.38;;;8.40;98.10;;;;;;5054756;28;20495;-66
2022/03/01 09:39:21;;;;;;;17.02;10.15;;;8.30;98.40;;;;;;5054137;28;20049;-66
2022/03/01 09:41:48;;;;;;;17.00;11.27;;;8.20;98.70;;;;;;5054589;28;20049;-67
2022/03/01 09:44:17;;;;;;;16.27;11.25;;;8.00;98.70;;;;;;5054324;28;20138;-67
2022/03/01 09:46:45;;;;;;;16.27;10.30;;;7.90;99.00;;;;;;5054820;28;20053;-67
2022/03/01 09:49:13;;;;;;;18.40;11.38;;;7.80;99.10;;;;;;5054774;28;20099;-67
2022/03/01 09:51:41;;;;;;;18.67;10.98;;;7.70;99.60;;;;;;5053894;28;20151;-65
2022/03/01 09:54:08;;;;;;;16.38;11.10;;;7.70;99.90;;;;;;5034922;28;20501;-67
2022/03/01 09:56:35;;;;;;;15.75;10.48;;;7.70;99.90;;;;;;5053861;28;20118;-67
2022/03/01 09:59:02;;;;;;;18.20;9.73;;;7.80;99.90;;;;;;5054246;28;20052;-67
2022/03/01 10:01:29;;;;;;;16.38;10.40;;;8.20;99.90;;;;;;5054527;28;20554;-66
2022/03/01 10:04:09;;;;;;;15.35;10.50;;;8.60;99.00;;;;;;5054412;28;20057;-67
2022/03/01 10:06:41;;;;;;;15.65;10.30;;;9.10;99.20;;;;;;5053707;28;20649;-67
2022/03/01 10:09:14;;;;;;;14.23;10.48;;;9.40;98.70;;;;;;5054053;28;20053;-67
2022/03/01 10:11:41;;;;;;;14.15;10.02;;;9.70;98.00;;;;;;5041148;28;20513;-66
2022/03/01 10:14:08;;;;;;;18.50;11.15;;;10.00;98.50;;;;;;5053061;28;20378;-66
2022/03/01 10:16:38;;;;;;;15.18;10.85;;;10.50;97.30;;;;;;5054059;28;20098;-67
2022/03/01 10:19:15;;;;;;;16.85;11.68;;;10.80;96.50;;;;;;5054415;28;20107;-66
2022/03/01 10:21:42;;;;;;;16.95;11.18;;;11.60;95.30;;;;;;5054086;28;20056;-66
2022/03/01 10:24:09;;;;;;;15.15;10.23;;;12.60;94.70;;;;;;5054087;28;20099;-67
2022/03/01 10:26:37;;;;;;;13.27;10.05;;;13.00;93.00;;;;;;5053056;28;20512;-67
2022/03/01 10:29:06;;;;;;;17.10;11.05;;;13.10;92.20;;;;;;5055359;28;20041;-68
2022/03/01 10:31:35;;;;;;;16.95;11.70;;;13.00;90.60;;;;;;5053795;28;20091;-67
2022/03/01 10:34:04;;;;;;;17.15;10.75;;;12.60;90.80;;;;;;5053019;28;20055;-65
2022/03/01 10:36:34;;;;;;;14.55;10.50;;;12.10;89.40;;;;;;5052001;28;20067;-66
2022/03/01 10:39:04;;;;;;;16.45;10.80;;;11.60;91.00;;;;;;5033545;28;20099;-65
2022/03/01 10:41:33;;;;;;;16.37;11.47;;;11.20;90.90;;;;;;5032344;28;20057;-70
2022/03/01 10:44:03;;;;;;;17.33;10.52;;;11.00;91.90;;;;;;5033750;28;20311;-69
2022/03/01 10:46:31;;;;;;;17.00;10.88;;;10.90;92.00;;;;;;5045216;28;20085;-69
2022/03/01 10:49:07;;;;;;;15.40;10.90;;;10.60;91.10;;;;;;5053133;28;20053;-69
2022/03/01 10:51:36;;;;;;;15.32;10.10;;;10.50;91.20;;;;;;5053430;28;20049;-70
2022/03/01 10:54:03;;;;;;;16.13;10.65;;;10.30;91.80;;;;;;5054702;28;20094;-65
2022/03/01 10:56:37;;;;;;;14.63;10.75;;;10.30;92.10;;;;;;5052832;28;20126;-65
2022/03/01 10:59:05;;;;;;;15.40;10.52;;;10.10;91.70;;;;;;5053381;28;20056;-65
2022/03/01 11:01:32;;;;;;;16.52;11.07;;;10.10;91.90;;;;;;5054263;28;20118;-66
2022/03/01 11:03:59;;;;;;;15.90;10.55;;;10.00;91.80;;;;;;5053416;28;20056;-65
2022/03/01 11:06:26;;;;;;;15.60;10.70;;;9.90;91.80;;;;;;5053288;28;20115;-65
2022/03/01 11:08:55;;;;;;;18.70;11.00;;;9.80;92.10;;;;;;5052415;28;20041;-66
2022/03/01 11:11:26;;;;;;;14.13;9.95;;;9.70;92.10;;;;;;5053500;28;20056;-65
2022/03/01 11:13:53;;;;;;;;;;;9.60;92.20;;;;;;5038795;28;20050;-65
2022/03/01 11:16:28;;;;;;;19.52;11.85;;;9.70;91.30;;;;;;5031124;28;19921;-66
2022/03/01 11:19:03;;;;;;;18.08;11.98;;;9.60;91.60;;;;;;5037779;28;20148;-65
2022/03/01 11:21:32;;;;;;;14.98;9.88;;;9.70;91.80;;;;;;5034326;28;20091;-66
2022/03/01 11:24:01;;;;;;;16.75;11.32;;;9.60;91.80;;;;;;5035445;28;20128;-66
2022/03/01 11:26:36;;;;;;;16.58;11.63;;;9.80;92.10;;;;;;5032076;28;20055;-66
2022/03/01 11:29:08;;;;;;;13.25;10.18;;;10.00;92.00;;;;;;5031927;28;20053;-65
2022/03/01 11:31:34;;;;;;;15.75;10.95;;;10.10;92.70;;;;;;5031804;28;20054;-65
2022/03/01 11:34:07;;;;;;;14.90;10.95;;;9.90;91.90;;;;;;5032048;28;20053;-66
2022/03/01 11:36:35;;;;;;;15.75;10.77;;;10.10;92.70;;;;;;5023474;28;20077;-65
2022/03/01 11:39:11;;;;;;;20.30;10.38;;;10.20;92.30;;;;;;5030722;28;20049;-65
2022/03/01 11:41:43;;;;;;;14.50;11.05;;;10.40;92.40;;;;;;5032544;28;20057;-66
2022/03/01 11:44:10;;;;;;;15.43;10.52;;;10.30;92.20;;;;;;5031279;28;20457;-66
2022/03/01 11:46:41;;;;;;;15.73;11.23;;;10.20;92.10;;;;;;5031688;28;20049;-64
2022/03/01 11:49:08;;;;;;;;;;;10.20;92.10;;;;;;5044543;28;20059;-65
2022/03/01 11:51:36;;;;;;;18.85;11.90;;;10.10;92.40;;;;;;5031359;28;20292;-65
2022/03/01 11:54:06;;;;;;;16.08;10.95;;;9.90;92.60;;;;;;5050945;28;20492;-65
2022/03/01 11:56:36;;;;;;;18.70;12.77;;;9.80;92.90;;;;;;5031888;28;20405;-65
2022/03/01 11:59:08;;;;;;;17.52;11.32;;;9.70;93.00;;;;;;5030341;28;20263;-65
2022/03/01 12:01:35;;;;;;;18.98;11.68;;;9.80;94.40;;;;;;5032696;28;20513;-64
2022/03/01 12:04:04;;;;;;;19.42;12.50;;;9.50;94.10;;;;;;5037201;28;20049;-65
2022/03/01 12:06:33;;;;;;;18.00;12.27;;;9.40;94.40;;;;;;5031957;28;20045;-64
2022/03/01 12:09:01;;;;;;;18.20;12.07;;;9.30;95.30;;;;;;5034924;28;20389;-65
2022/03/01 12:11:35;;;;;;;16.42;11.02;;;9.20;94.90;;;;;;5032000;28;20053;-65
2022/03/01 12:14:04;;;;;;;19.13;11.45;;;9.10;95.40;;;;;;5032019;28;20050;-65
2022/03/01 12:16:31;;;;;;;15.40;11.93;;;8.90;95.60;;;;;;5036523;28;20053;-65
2022/03/01 12:19:10;;;;;;;17.67;11.65;;;8.90;96.00;;;;;;5038645;28;20049;-66
2022/03/01 12:21:38;;;;;;;16.98;11.70;;;8.90;95.10;;;;;;5036022;28;20049;-66
2022/03/01 12:24:06;;;;;;;17.52;12.25;;;8.90;95.60;;;;;;5044258;28;20057;-65
2022/03/01 12:26:43;;;;;;;20.10;12.95;;;9.00;95.70;;;;;;5046898;28;20049;-65
2022/03/01 12:29:10;;;;;;;17.45;12.82;;;9.00;95.60;;;;;;5041366;28;20045;-65
2022/03/01 12:31:37;;;;;;;18.50;12.35;;;9.10;95.80;;;;;;5030901;28;20107;-65
2022/03/01 12:34:06;;;;;;;23.38;13.15;;;9.00;94.80;;;;;;5030162;28;20053;-64
2022/03/01 12:36:35;;;;;;;14.75;11.15;;;9.00;95.50;;;;;;5033967;28;20106;-65
2022/03/01 12:39:05;;;;;;;18.23;12.85;;;9.20;95.70;;;;;;5036815;28;20045;-65
2022/03/01 12:41:32;;;;;;;20.42;12.77;;;9.20;95.20;;;;;;5033842;28;20107;-66
2022/03/01 12:44:03;;;;;;;17.08;11.98;;;9.30;95.10;;;;;;5031850;28;20051;-64
2022/03/01 12:46:30;;;;;;;17.88;12.57;;;9.50;94.90;;;;;;5033576;28;20061;-64
2022/03/01 12:48:58;;;;;;;16.33;12.07;;;9.60;94.70;;;;;;5029947;28;20058;-65
2022/03/01 12:51:27;;;;;;;23.45;12.40;;;9.60;94.80;;;;;;5031921;28;20389;-64
2022/03/01 12:53:56;;;;;;;16.85;11.70;;;9.70;94.70;;;;;;5031510;28;20091;-65